createdAt,value
2023-01-17T00:16:14.157Z,20.47
2023-01-17T00:45:04.011Z,20.41
2023-01-17T01:14:00.628Z,20.36
2023-01-17T01:42:55.558Z,20.34
2023-01-17T02:15:51.616Z,20.3
2023-01-17T02:44:28.755Z,20.28
2023-01-17T03:13:16.834Z,20.24
2023-01-17T03:42:05.954Z,20.2
2023-01-17T04:10:51.013Z,20.18
2023-01-17T04:39:37.052Z,20.14
2023-01-17T05:08:19.599Z,20.12
2023-01-17T05:37:04.364Z,20.21
2023-01-17T06:05:38.396Z,20.66
2023-01-17T06:34:17.535Z,20.41
2023-01-17T07:02:57.481Z,20.69
2023-01-17T07:31:41.327Z,20.58
2023-01-17T08:00:19.704Z,20.76
2023-01-17T08:29:05.686Z,21.17
2023-01-17T08:57:47.657Z,21.34
2023-01-17T09:26:30.686Z,21.54
2023-01-17T09:55:16.196Z,21.53
2023-01-17T10:24:02.023Z,21.5
2023-01-17T10:52:27.891Z,21.87
2023-01-17T11:21:10.560Z,21.71
2023-01-17T11:49:38.523Z,21.64
2023-01-17T12:18:19.483Z,21.67
2023-01-17T12:46:58.411Z,21.72
2023-01-17T13:15:43.148Z,21.89
2023-01-17T13:44:25.403Z,21.89
2023-01-17T14:13:07.808Z,22.21
2023-01-17T14:41:45.377Z,22.3
2023-01-17T15:10:27.894Z,21.97
2023-01-17T15:39:12.003Z,22.02
2023-01-17T16:07:50.957Z,21.82
2023-01-17T16:36:29.511Z,21.66
2023-01-17T17:05:10.264Z,21.49
2023-01-17T17:33:48.314Z,21.73
2023-01-17T18:02:27.147Z,21.97
2023-01-17T18:31:06.300Z,21.6
2023-01-17T18:59:44.664Z,21.45
2023-01-17T19:28:22.804Z,21.33
2023-01-17T19:57:01.116Z,21.2
2023-01-17T20:25:48.808Z,21.1
2023-01-17T20:54:35.445Z,21.02
2023-01-17T21:23:20.933Z,20.95
2023-01-17T21:52:05.626Z,20.88
2023-01-17T22:20:34.507Z,20.79
2023-01-17T22:49:20.118Z,20.74
2023-01-17T23:18:06.348Z,20.68
2023-01-17T23:46:48.779Z,20.62
